createdAt,value
2022-08-31T00:03:58.815Z,79.74
2022-08-31T00:06:12.173Z,79.74
2022-08-31T00:08:55.055Z,79.78
2022-08-31T00:13:55.721Z,80.26
2022-08-31T00:18:54.848Z,80.31
2022-08-31T00:23:55.170Z,80.06
2022-08-31T00:28:55.129Z,80.44
2022-08-31T00:33:55.906Z,80.07
2022-08-31T00:38:55.824Z,79.99
2022-08-31T00:43:57.467Z,79.91
2022-08-31T00:49:01.389Z,80.07
2022-08-31T00:53:56.087Z,79.51
2022-08-31T00:58:55.196Z,79.46
2022-08-31T01:03:55.006Z,79.61
2022-08-31T01:08:59.173Z,79.90
2022-08-31T01:13:55.699Z,79.96
2022-08-31T01:18:56.697Z,80.05
2022-08-31T01:23:57.104Z,80.09
2022-08-31T01:29:00.631Z,80.03
2022-08-31T01:33:54.901Z,80.10
2022-08-31T01:38:54.729Z,79.90
2022-08-31T01:43:56.103Z,79.83
2022-08-31T01:48:54.757Z,79.89
2022-08-31T01:53:55.313Z,80.24
2022-08-31T01:58:55.256Z,80.43
2022-08-31T02:03:57.250Z,81.06
2022-08-31T02:08:54.725Z,80.61
2022-08-31T02:13:54.911Z,80.38
2022-08-31T02:18:54.710Z,80.37
2022-08-31T02:23:54.723Z,80.51
2022-08-31T02:28:55.003Z,80.28
2022-08-31T02:33:54.622Z,80.04
2022-08-31T02:38:55.038Z,80.03
2022-08-31T02:43:54.974Z,80.20
2022-08-31T02:48:54.953Z,79.68
2022-08-31T02:53:54.815Z,79.65
2022-08-31T02:58:55.435Z,79.43
2022-08-31T03:03:55.276Z,79.36
2022-08-31T03:08:54.938Z,79.21
2022-08-31T03:13:58.498Z,78.80
2022-08-31T03:18:54.752Z,78.68
2022-08-31T03:23:54.780Z,78.65
2022-08-31T03:28:55.031Z,78.75
2022-08-31T03:33:56.446Z,79.22
2022-08-31T03:38:54.769Z,79.38
2022-08-31T03:43:54.815Z,79.34
2022-08-31T03:48:54.535Z,79.18
2022-08-31T03:53:54.883Z,79.13
2022-08-31T03:56:11.636Z,79.13
2022-08-31T03:58:54.569Z,78.83
2022-08-31T04:03:55.184Z,78.39
2022-08-31T04:08:56.080Z,78.36
2022-08-31T04:13:54.767Z,78.21
2022-08-31T04:18:54.758Z,77.64
2022-08-31T04:23:55.154Z,77.06
2022-08-31T04:28:55.698Z,76.79
2022-08-31T04:33:56.175Z,76.07
2022-08-31T04:38:57.107Z,76.05
2022-08-31T04:43:57.514Z,75.64
2022-08-31T04:48:54.995Z,74.89
2022-08-31T04:53:54.942Z,75.15
2022-08-31T04:58:57.116Z,75.32
2022-08-31T05:03:56.327Z,75.25
2022-08-31T05:08:56.968Z,75.22
2022-08-31T05:13:57.428Z,75.53
2022-08-31T05:18:54.571Z,75.37
2022-08-31T05:23:56.073Z,74.67
2022-08-31T05:28:55.482Z,74.48
2022-08-31T05:33:56.011Z,74.34
2022-08-31T05:38:58.968Z,74.46
2022-08-31T05:43:54.693Z,73.29
2022-08-31T05:48:54.734Z,73.44
2022-08-31T05:53:57.353Z,72.81
2022-08-31T05:58:55.385Z,72.31
2022-08-31T06:03:55.884Z,70.43
2022-08-31T06:08:55.186Z,69.35
2022-08-31T06:13:57.426Z,69.42
2022-08-31T06:18:56.658Z,68.17
2022-08-31T06:23:56.994Z,67.08
2022-08-31T06:28:57.338Z,67.61
2022-08-31T06:33:55.239Z,66.44
2022-08-31T06:38:58.346Z,64.82
2022-08-31T06:43:54.964Z,63.31
2022-08-31T06:48:55.556Z,61.64
2022-08-31T06:53:54.761Z,59.33
2022-08-31T06:58:54.923Z,59.35
2022-08-31T07:03:56.095Z,57.68
2022-08-31T07:08:57.238Z,58.29
2022-08-31T07:10:35.337Z,58.29
2022-08-31T07:13:56.029Z,56.80
2022-08-31T07:18:59.579Z,54.39
2022-08-31T07:23:57.124Z,48.60
2022-08-31T07:28:56.556Z,47.94
2022-08-31T07:32:56.640Z,46.30
2022-08-31T07:33:56.201Z,46.30
2022-08-31T07:34:09.958Z,46.30
2022-08-31T07:39:04.419Z,45.19
2022-08-31T07:43:56.160Z,41.73
2022-08-31T07:48:54.660Z,42.40
2022-08-31T07:53:55.153Z,40.83
2022-08-31T07:56:37.275Z,40.83
2022-08-31T07:58:47.044Z,39.71
2022-08-31T07:58:54.304Z,39.71
2022-08-31T08:02:45.423Z,37.15
2022-08-31T08:03:54.387Z,37.15
2022-08-31T08:09:22.233Z,37.17
2022-08-31T08:11:45.220Z,37.46
2022-08-31T08:13:54.792Z,37.46
2022-08-31T08:14:57.976Z,37.46
2022-08-31T08:16:33.323Z,37.46
2022-08-31T08:18:54.450Z,35.03
2022-08-31T08:20:01.453Z,35.03
2022-08-31T08:23:55.049Z,38.39
2022-08-31T08:24:22.735Z,38.39
2022-08-31T08:25:18.829Z,38.39
2022-08-31T08:28:54.622Z,35.42
2022-08-31T08:30:06.455Z,35.42
2022-08-31T08:33:34.174Z,35.49
2022-08-31T08:33:54.784Z,35.49
2022-08-31T08:37:07.250Z,34.95
2022-08-31T08:38:56.414Z,34.95
2022-08-31T08:43:58.027Z,32.36
2022-08-31T08:48:56.714Z,33.77
2022-08-31T08:53:53.958Z,32.63
2022-08-31T08:54:00.825Z,32.63
2022-08-31T08:58:55.020Z,32.08
2022-08-31T09:04:05.294Z,29.13
2022-08-31T09:09:11.633Z,31.75
2022-08-31T09:14:08.765Z,30.30
2022-08-31T09:18:59.078Z,30.49
2022-08-31T09:24:00.567Z,31.66
2022-08-31T09:24:03.826Z,31.66
2022-08-31T09:24:07.850Z,31.66
2022-08-31T09:28:54.971Z,31.43
2022-08-31T09:33:54.517Z,28.35
2022-08-31T09:38:56.455Z,30.33
2022-08-31T09:44:14.370Z,30.43
2022-08-31T09:48:57.203Z,28.51
2022-08-31T09:54:12.563Z,27.96
2022-08-31T09:59:00.488Z,28.37
2022-08-31T10:04:15.347Z,29.99
2022-08-31T10:08:59.013Z,28.71
2022-08-31T10:14:03.589Z,28.73
2022-08-31T10:19:00.624Z,28.48
2022-08-31T10:24:05.239Z,27.29
2022-08-31T10:28:59.006Z,28.78
2022-08-31T10:34:09.186Z,28.93
2022-08-31T10:38:56.742Z,28.53
2022-08-31T10:44:00.754Z,26.99
2022-08-31T10:48:56.639Z,28.72
2022-08-31T10:54:05.886Z,30.97
2022-08-31T10:59:04.624Z,32.34
2022-08-31T11:04:14.458Z,33.62
2022-08-31T11:09:00.191Z,31.39
2022-08-31T11:11:46.561Z,33.28
2022-08-31T11:14:07.109Z,33.28
2022-08-31T11:14:35.628Z,33.28
2022-08-31T11:19:13.498Z,33.65
2022-08-31T11:20:18.794Z,33.65
2022-08-31T11:23:45.164Z,33.66
2022-08-31T11:24:10.597Z,33.66
2022-08-31T11:28:10.125Z,33.87
2022-08-31T11:28:59.749Z,33.87
2022-08-31T11:29:56.396Z,33.87
2022-08-31T11:31:54.028Z,32.10
2022-08-31T11:34:15.021Z,32.10
2022-08-31T11:39:14.611Z,33.39
2022-08-31T11:43:54.324Z,33.68
2022-08-31T11:45:07.105Z,33.68
2022-08-31T11:48:58.153Z,33.50
2022-08-31T11:53:54.619Z,33.55
2022-08-31T11:56:55.769Z,34.94
2022-08-31T11:59:14.230Z,34.94
2022-08-31T11:59:25.119Z,34.94
2022-08-31T11:59:34.120Z,34.94
2022-08-31T12:04:02.370Z,35.42
2022-08-31T12:09:13.978Z,35.51
2022-08-31T12:14:00.553Z,35.04
2022-08-31T12:14:50.296Z,35.04
2022-08-31T12:17:24.057Z,34.59
2022-08-31T12:19:24.002Z,34.59
2022-08-31T12:24:17.675Z,33.71
2022-08-31T12:29:14.371Z,34.31
2022-08-31T12:34:00.921Z,34.15
2022-08-31T12:39:07.455Z,35.00
2022-08-31T12:41:51.059Z,34.70
2022-08-31T12:43:54.384Z,34.70
2022-08-31T12:44:58.248Z,34.70
2022-08-31T12:49:11.170Z,34.15
2022-08-31T12:54:11.485Z,31.57
2022-08-31T12:59:09.148Z,33.52
2022-08-31T13:00:47.825Z,33.52
2022-08-31T13:03:53.864Z,34.07
2022-08-31T13:04:02.337Z,34.07
2022-08-31T13:06:47.377Z,34.05
2022-08-31T13:08:55.357Z,34.05
2022-08-31T13:10:52.290Z,34.05
2022-08-31T13:13:04.450Z,33.74
2022-08-31T13:14:10.835Z,33.74
2022-08-31T13:14:40.473Z,33.74
2022-08-31T13:16:19.957Z,33.74
2022-08-31T13:18:59.676Z,33.74
2022-08-31T13:19:31.892Z,33.74
2022-08-31T13:21:55.383Z,34.88
2022-08-31T13:24:06.386Z,34.88
2022-08-31T13:24:15.161Z,34.88
2022-08-31T13:28:50.071Z,34.10
2022-08-31T13:28:58.575Z,34.10
2022-08-31T13:32:41.273Z,34.33
2022-08-31T13:34:00.809Z,34.33
2022-08-31T13:36:10.709Z,34.33
2022-08-31T13:38:55.080Z,34.39
2022-08-31T13:41:26.391Z,34.39
2022-08-31T13:43:59.766Z,34.23
2022-08-31T13:46:58.346Z,34.61
2022-08-31T13:49:01.004Z,34.61
2022-08-31T13:53:38.602Z,33.87
2022-08-31T13:54:07.823Z,33.87
2022-08-31T13:56:35.236Z,33.87
2022-08-31T13:59:25.551Z,34.72
2022-08-31T13:59:29.221Z,34.72
2022-08-31T14:01:31.705Z,34.72
2022-08-31T14:03:57.752Z,34.89
2022-08-31T14:09:02.343Z,33.73
2022-08-31T14:11:12.885Z,33.73
2022-08-31T14:13:30.308Z,34.62
2022-08-31T14:14:04.251Z,34.62
2022-08-31T14:16:08.230Z,34.62
2022-08-31T14:18:54.932Z,35.34
2022-08-31T14:23:59.982Z,36.01
2022-08-31T14:28:59.184Z,37.40
2022-08-31T14:34:08.744Z,38.74
2022-08-31T14:38:41.655Z,39.53
2022-08-31T14:38:54.207Z,39.53
2022-08-31T14:43:55.938Z,39.77
2022-08-31T14:46:49.498Z,39.21
2022-08-31T14:48:55.364Z,39.21
2022-08-31T14:53:55.901Z,39.02
2022-08-31T14:58:54.434Z,38.27
2022-08-31T15:03:54.625Z,38.73
2022-08-31T15:08:54.277Z,39.12
2022-08-31T15:13:54.777Z,39.69
2022-08-31T15:18:55.141Z,40.18
2022-08-31T15:23:54.335Z,40.66
2022-08-31T15:28:56.055Z,41.19
2022-08-31T15:33:54.829Z,41.39
2022-08-31T15:38:56.398Z,41.62
2022-08-31T15:43:55.030Z,42.30
2022-08-31T15:48:54.530Z,42.77
2022-08-31T15:54:20.813Z,43.10
2022-08-31T15:58:57.524Z,43.11
2022-08-31T16:03:56.662Z,43.01
2022-08-31T16:08:55.459Z,43.50
2022-08-31T16:13:58.064Z,43.76
2022-08-31T16:18:56.280Z,43.88
2022-08-31T16:23:59.648Z,44.54
2022-08-31T16:28:55.315Z,44.86
2022-08-31T16:33:54.940Z,45.18
2022-08-31T16:38:55.848Z,46.10
2022-08-31T16:44:18.510Z,46.14
2022-08-31T16:49:04.920Z,46.51
2022-08-31T16:53:57.824Z,46.92
2022-08-31T16:58:57.695Z,47.53
2022-08-31T17:03:56.216Z,48.10
2022-08-31T17:08:57.267Z,48.57
2022-08-31T17:13:57.242Z,48.61
2022-08-31T17:18:56.524Z,49.62
2022-08-31T17:23:57.565Z,49.43
2022-08-31T17:28:59.213Z,50.12
2022-08-31T17:33:54.568Z,50.29
2022-08-31T17:38:54.299Z,49.44
2022-08-31T17:41:03.870Z,49.44
2022-08-31T17:42:25.692Z,48.62
2022-08-31T17:43:57.460Z,48.62
2022-08-31T17:48:54.873Z,48.27
2022-08-31T17:50:52.675Z,48.27
2022-08-31T17:53:56.948Z,48.14
2022-08-31T17:58:54.541Z,47.99
2022-08-31T18:03:54.238Z,48.14
2022-08-31T18:08:55.014Z,48.58
2022-08-31T18:13:02.543Z,48.90
2022-08-31T18:13:55.672Z,48.90
2022-08-31T18:14:58.124Z,48.90
2022-08-31T18:18:54.161Z,49.10
2022-08-31T18:23:54.445Z,49.45
2022-08-31T18:28:55.307Z,49.54
2022-08-31T18:32:20.133Z,50.17
2022-08-31T18:33:54.820Z,50.17
2022-08-31T18:38:56.004Z,50.34
2022-08-31T18:41:19.739Z,50.34
2022-08-31T18:43:41.720Z,51.00
2022-08-31T18:44:04.277Z,51.00
2022-08-31T18:48:55.569Z,51.61
2022-08-31T18:53:55.048Z,52.05
2022-08-31T18:58:54.185Z,52.28
2022-08-31T19:03:57.167Z,52.48
2022-08-31T19:08:54.396Z,52.68
2022-08-31T19:09:24.387Z,52.68
2022-08-31T19:13:54.151Z,53.17
2022-08-31T19:18:56.060Z,53.31
2022-08-31T19:20:19.799Z,53.31
2022-08-31T19:23:55.578Z,53.52
2022-08-31T19:28:55.388Z,53.90
2022-08-31T19:33:56.986Z,54.21
2022-08-31T19:38:55.209Z,54.46
2022-08-31T19:44:03.057Z,55.14
2022-08-31T19:48:58.858Z,55.15
2022-08-31T19:50:41.541Z,55.15
2022-08-31T19:53:55.340Z,55.85
2022-08-31T19:58:55.481Z,55.99
2022-08-31T20:03:55.103Z,56.42
2022-08-31T20:08:54.591Z,56.61
2022-08-31T20:13:54.694Z,57.08
2022-08-31T20:17:47.169Z,57.21
2022-08-31T20:18:56.570Z,57.21
2022-08-31T20:23:56.995Z,57.63
2022-08-31T20:28:57.953Z,58.11
2022-08-31T20:31:08.757Z,58.11
2022-08-31T20:33:30.603Z,58.35
2022-08-31T20:33:56.228Z,58.35
2022-08-31T20:38:05.125Z,58.66
2022-08-31T20:38:56.805Z,58.66
2022-08-31T20:43:55.848Z,58.59
2022-08-31T20:44:09.365Z,58.59
2022-08-31T20:46:33.294Z,58.59
2022-08-31T20:49:04.040Z,59.11
2022-08-31T20:53:54.078Z,59.89
2022-08-31T20:58:54.397Z,60.12
2022-08-31T21:01:17.273Z,60.12
2022-08-31T21:03:54.911Z,61.13
2022-08-31T21:08:56.674Z,61.23
2022-08-31T21:11:12.371Z,61.23
2022-08-31T21:13:54.638Z,61.93
2022-08-31T21:18:55.134Z,62.53
2022-08-31T21:21:45.388Z,62.51
2022-08-31T21:23:54.072Z,62.51
2022-08-31T21:28:55.690Z,62.19
2022-08-31T21:33:56.703Z,62.08
2022-08-31T21:36:14.399Z,62.08
2022-08-31T21:38:56.166Z,62.20
2022-08-31T21:43:56.042Z,62.46
2022-08-31T21:48:57.732Z,62.04
2022-08-31T21:53:56.412Z,61.61
2022-08-31T21:54:25.093Z,61.61
2022-08-31T21:58:56.455Z,61.75
2022-08-31T22:03:58.790Z,61.69
2022-08-31T22:08:59.117Z,61.45
2022-08-31T22:13:56.442Z,61.49
2022-08-31T22:19:02.169Z,61.66
2022-08-31T22:23:56.719Z,61.59
2022-08-31T22:28:54.709Z,61.91
2022-08-31T22:33:54.367Z,62.03
2022-08-31T22:38:55.136Z,62.09
2022-08-31T22:43:55.311Z,61.90
2022-08-31T22:48:54.761Z,61.96
2022-08-31T22:53:54.098Z,62.24
2022-08-31T22:58:55.918Z,62.30
2022-08-31T23:03:57.929Z,62.42
2022-08-31T23:08:55.870Z,62.82
2022-08-31T23:13:57.662Z,63.43
2022-08-31T23:18:57.997Z,63.57
2022-08-31T23:23:54.896Z,64.04
2022-08-31T23:28:55.165Z,64.75
2022-08-31T23:33:54.377Z,65.49
2022-08-31T23:39:00.560Z,65.61
2022-08-31T23:43:55.721Z,65.93
2022-08-31T23:48:54.639Z,66.23
2022-08-31T23:53:54.730Z,66.27
2022-08-31T23:58:54.303Z,66.61
